createdAt,value
2018-09-12T00:19:43.790Z,69.60
2018-09-12T00:22:11.406Z,70.30
2018-09-12T00:24:38.919Z,70.20
2018-09-12T00:27:06.534Z,70.00
2018-09-12T00:29:34.067Z,70.10
2018-09-12T00:32:01.541Z,70.50
2018-09-12T00:34:32.506Z,71.60
2018-09-12T00:37:00.309Z,71.60
2018-09-12T00:39:28.152Z,71.80
2018-09-12T00:41:55.605Z,71.60
2018-09-12T00:44:23.372Z,71.30
2018-09-12T00:46:50.883Z,70.70
2018-09-12T00:49:18.480Z,70.20
2018-09-12T00:51:46.092Z,70.50
2018-09-12T00:54:13.706Z,72.30
2018-09-12T00:56:41.185Z,72.30
2018-09-12T00:59:08.821Z,71.80
2018-09-12T01:01:36.990Z,71.40
2018-09-12T01:04:04.560Z,71.70
2018-09-12T01:06:32.630Z,71.10
2018-09-12T01:15:04.876Z,71.10
2018-09-12T01:26:29.124Z,73.10
2018-09-12T01:28:56.629Z,73.70
2018-09-12T01:31:24.391Z,73.30
2018-09-12T01:33:52.031Z,73.30
2018-09-12T01:36:19.710Z,73.20
2018-09-12T01:38:47.352Z,73.00
2018-09-12T01:41:14.990Z,73.00
2018-09-12T01:43:42.431Z,73.60
2018-09-12T01:46:10.170Z,73.90
2018-09-12T01:51:48.909Z,74.60
2018-09-12T01:54:19.597Z,75.20
2018-09-12T01:59:31.305Z,75.30
2018-09-12T02:01:59.127Z,75.40
2018-09-12T02:07:53.248Z,75.80
2018-09-12T02:13:23.892Z,76.10
2018-09-12T02:19:06.334Z,78.60
2018-09-12T02:21:34.600Z,79.10
2018-09-12T02:26:36.214Z,79.00
2018-09-12T02:32:08.693Z,78.70
2018-09-12T02:40:31.444Z,77.50
2018-09-12T02:42:58.933Z,77.80
2018-09-12T02:45:49.752Z,77.80
2018-09-12T02:51:20.436Z,78.30
2018-09-12T02:56:52.037Z,77.30
2018-09-12T02:59:20.019Z,76.90
2018-09-12T03:04:51.940Z,76.50
2018-09-12T03:07:19.497Z,75.80
2018-09-12T03:09:47.302Z,75.60
2018-09-12T03:12:15.258Z,76.10
2018-09-12T03:14:42.962Z,76.70
2018-09-12T03:17:11.104Z,76.90
2018-09-12T03:19:38.862Z,76.50
2018-09-12T03:22:06.536Z,76.60
2018-09-12T03:24:34.609Z,76.40
2018-09-12T03:27:02.599Z,76.30
2018-09-12T03:29:30.222Z,76.30
2018-09-12T03:31:58.298Z,76.90
2018-09-12T03:34:25.997Z,76.50
2018-09-12T03:36:53.912Z,76.20
2018-09-12T03:39:21.542Z,76.80
2018-09-12T03:41:49.169Z,77.00
2018-09-12T03:44:16.787Z,76.10
2018-09-12T03:46:44.361Z,75.60
2018-09-12T03:49:13.035Z,76.00
2018-09-12T03:51:42.055Z,76.30
2018-09-12T03:54:09.726Z,77.00
2018-09-12T03:56:37.592Z,76.70
2018-09-12T03:59:05.351Z,77.00
2018-09-12T04:01:32.856Z,77.30
2018-09-12T04:07:29.238Z,77.40
2018-09-12T04:09:56.998Z,77.10
2018-09-12T04:12:24.641Z,77.20
2018-09-12T04:14:52.325Z,77.10
2018-09-12T04:17:20.050Z,76.90
2018-09-12T04:19:47.560Z,77.60
2018-09-12T04:22:21.289Z,77.70
2018-09-12T04:24:50.443Z,78.30
2018-09-12T04:27:18.106Z,78.50
2018-09-12T04:29:45.887Z,79.50
2018-09-12T04:32:13.715Z,78.30
2018-09-12T04:34:41.187Z,78.30
2018-09-12T04:37:08.869Z,78.60
2018-09-12T04:39:36.400Z,79.00
2018-09-12T04:42:03.966Z,79.00
2018-09-12T04:44:31.613Z,79.40
2018-09-12T04:46:59.318Z,79.30
2018-09-12T04:49:26.811Z,79.00
2018-09-12T04:51:54.964Z,78.50
2018-09-12T04:54:22.672Z,78.60
2018-09-12T04:56:50.254Z,78.80
2018-09-12T04:59:18.428Z,79.20
2018-09-12T05:01:46.319Z,79.80
2018-09-12T05:07:00.179Z,80.40
2018-09-12T05:15:33.859Z,80.20
2018-09-12T05:18:13.518Z,80.20
2018-09-12T05:23:43.722Z,79.80
2018-09-12T05:26:11.667Z,80.00
2018-09-12T05:28:39.219Z,80.50
2018-09-12T05:31:06.882Z,80.10
2018-09-12T05:33:40.799Z,79.90
2018-09-12T05:36:08.440Z,79.80
2018-09-12T05:38:59.527Z,79.90
2018-09-12T05:44:30.237Z,80.30
2018-09-12T05:50:01.252Z,80.00
2018-09-12T05:52:39.067Z,79.80
2018-09-12T05:55:06.691Z,80.00
2018-09-12T06:04:00.421Z,80.20
2018-09-12T06:06:28.100Z,80.30
2018-09-12T06:08:56.452Z,80.20
2018-09-12T06:11:24.092Z,80.20
2018-09-12T06:13:51.710Z,80.20
2018-09-12T06:16:19.307Z,81.20
2018-09-12T06:18:46.876Z,80.70
2018-09-12T06:21:14.724Z,80.40
2018-09-12T06:23:44.251Z,79.70
2018-09-12T06:29:14.385Z,79.50
2018-09-12T06:31:44.736Z,79.30
2018-09-12T06:43:12.317Z,78.10
2018-09-12T06:46:13.352Z,77.70
2018-09-12T06:48:41.596Z,76.50
2018-09-12T06:51:26.437Z,76.50
2018-09-12T06:59:50.204Z,76.30
2018-09-12T07:02:17.850Z,75.30
2018-09-12T07:04:45.365Z,75.80
2018-09-12T07:07:12.868Z,75.40
2018-09-12T07:09:40.501Z,74.90
2018-09-12T07:12:08.178Z,74.20
2018-09-12T07:14:35.916Z,74.20
2018-09-12T07:17:03.477Z,74.50
2018-09-12T07:19:31.020Z,73.40
2018-09-12T07:21:58.620Z,73.00
2018-09-12T07:24:26.463Z,73.50
2018-09-12T07:27:06.412Z,73.10
2018-09-12T07:29:44.245Z,70.50
2018-09-12T07:32:12.864Z,70.00
2018-09-12T07:34:40.346Z,70.10
2018-09-12T07:37:07.898Z,70.40
2018-09-12T07:39:35.462Z,69.60
2018-09-12T07:42:03.047Z,69.80
2018-09-12T07:44:30.614Z,68.70
2018-09-12T07:46:58.158Z,68.20
2018-09-12T07:49:25.735Z,68.90
2018-09-12T07:51:53.326Z,68.00
2018-09-12T07:54:20.936Z,68.00
2018-09-12T07:56:48.457Z,68.30
2018-09-12T07:59:15.952Z,68.60
2018-09-12T08:01:43.519Z,68.50
2018-09-12T08:04:11.046Z,68.70
2018-09-12T08:06:38.658Z,68.60
2018-09-12T08:09:08.138Z,67.70
2018-09-12T08:11:35.713Z,67.20
2018-09-12T08:14:03.293Z,67.20
2018-09-12T08:16:30.870Z,66.80
2018-09-12T08:19:05.305Z,66.90
2018-09-12T08:21:32.793Z,66.80
2018-09-12T08:24:00.240Z,66.20
2018-09-12T08:26:27.807Z,65.90
2018-09-12T08:28:55.463Z,65.00
2018-09-12T08:31:23.024Z,64.00
2018-09-12T08:33:50.603Z,62.60
2018-09-12T08:36:18.199Z,62.50
2018-09-12T08:38:45.760Z,64.50
2018-09-12T08:41:13.323Z,65.20
2018-09-12T08:43:40.885Z,62.40
2018-09-12T08:46:08.386Z,63.00
2018-09-12T08:48:35.953Z,63.80
2018-09-12T08:51:03.477Z,62.60
2018-09-12T08:53:31.225Z,64.10
2018-09-12T08:55:58.802Z,63.00
2018-09-12T08:58:26.386Z,62.40
2018-09-12T09:00:53.992Z,61.90
2018-09-12T09:03:21.518Z,60.70
2018-09-12T09:05:49.165Z,61.10
2018-09-12T09:08:16.730Z,59.80
2018-09-12T09:10:44.285Z,57.20
2018-09-12T09:13:11.856Z,55.90
2018-09-12T09:15:39.570Z,55.10
2018-09-12T09:18:07.280Z,53.70
2018-09-12T09:20:34.758Z,52.90
2018-09-12T09:23:02.308Z,52.60
2018-09-12T09:25:29.868Z,52.30
2018-09-12T09:27:57.388Z,51.80
2018-09-12T09:30:30.022Z,51.20
2018-09-12T09:32:57.542Z,51.00
2018-09-12T09:35:31.581Z,51.50
2018-09-12T09:41:18.103Z,48.30
2018-09-12T09:43:46.317Z,46.60
2018-09-12T09:46:19.911Z,46.20
2018-09-12T09:48:48.173Z,46.70
2018-09-12T09:51:19.219Z,46.40
2018-09-12T09:53:46.887Z,45.50
2018-09-12T09:56:14.425Z,45.30
2018-09-12T09:58:42.102Z,45.10
2018-09-12T10:01:15.290Z,44.30
2018-09-12T10:03:48.391Z,43.70
2018-09-12T10:06:24.460Z,43.70
2018-09-12T10:08:54.006Z,42.90
2018-09-12T10:11:25.152Z,42.90
2018-09-12T10:16:28.946Z,42.50
2018-09-12T10:19:05.069Z,42.20
2018-09-12T10:21:32.735Z,41.50
2018-09-12T10:24:00.381Z,40.20
2018-09-12T10:26:27.776Z,40.90
2018-09-12T10:28:58.165Z,40.00
2018-09-12T10:31:25.924Z,40.70
2018-09-12T10:33:53.488Z,40.50
2018-09-12T10:36:21.005Z,39.90
2018-09-12T10:38:48.566Z,39.60
2018-09-12T10:41:16.041Z,39.50
2018-09-12T10:43:43.588Z,39.60
2018-09-12T10:46:11.143Z,38.70
2018-09-12T10:48:38.635Z,38.00
2018-09-12T10:51:11.467Z,37.40
2018-09-12T10:53:47.345Z,38.00
2018-09-12T10:56:15.064Z,38.00
2018-09-12T10:58:45.922Z,37.50
2018-09-12T11:01:20.081Z,37.30
2018-09-12T11:03:48.020Z,36.70
2018-09-12T11:12:24.191Z,36.90
2018-09-12T11:14:51.616Z,38.10
2018-09-12T11:17:19.098Z,37.70
2018-09-12T11:25:43.447Z,36.80
2018-09-12T11:28:10.869Z,36.90
2018-09-12T11:33:52.434Z,36.20
2018-09-12T11:39:23.414Z,35.80
2018-09-12T11:41:51.016Z,35.20
2018-09-12T11:44:18.581Z,35.20
2018-09-12T11:49:38.726Z,35.50
2018-09-12T11:58:11.046Z,35.10
2018-09-12T12:06:44.659Z,34.50
2018-09-12T12:15:16.530Z,34.10
2018-09-12T12:17:44.287Z,33.40
2018-09-12T12:20:11.818Z,33.30
2018-09-12T12:22:40.164Z,33.20
2018-09-12T12:28:09.389Z,33.50
2018-09-12T12:30:36.879Z,31.90
2018-09-12T12:33:04.374Z,31.40
2018-09-12T12:38:34.978Z,32.10
2018-09-12T12:44:26.909Z,32.40
2018-09-12T12:46:54.440Z,32.30
2018-09-12T12:49:21.949Z,33.30
2018-09-12T12:51:49.732Z,33.40
2018-09-12T12:54:17.267Z,32.20
2018-09-12T12:56:44.817Z,32.60
2018-09-12T12:59:12.280Z,32.40
2018-09-12T13:01:39.805Z,32.70
2018-09-12T13:04:07.274Z,30.90
2018-09-12T13:06:34.783Z,32.30
2018-09-12T13:09:02.287Z,33.20
2018-09-12T13:11:29.841Z,32.40
2018-09-12T13:13:57.252Z,31.80
2018-09-12T13:16:25.136Z,31.40
2018-09-12T13:18:52.610Z,30.90
2018-09-12T13:21:20.191Z,31.50
2018-09-12T13:26:50.637Z,30.60
2018-09-12T13:29:18.135Z,32.10
2018-09-12T13:32:08.466Z,31.60
2018-09-12T13:34:48.402Z,31.20
2018-09-12T13:37:15.909Z,30.90
2018-09-12T13:39:43.476Z,31.70
2018-09-12T13:54:29.665Z,30.50
2018-09-12T13:56:57.088Z,30.70
2018-09-12T14:05:21.997Z,30.30
2018-09-12T14:14:36.091Z,30.40
2018-09-12T14:17:26.917Z,29.80
2018-09-12T14:23:16.992Z,29.30
2018-09-12T14:28:47.674Z,29.50
2018-09-12T14:31:15.258Z,29.40
2018-09-12T14:33:49.955Z,29.10
2018-09-12T14:45:16.605Z,28.80
2018-09-12T14:47:44.227Z,30.60
2018-09-12T14:50:11.660Z,30.10
2018-09-12T14:52:39.165Z,30.00
2018-09-12T14:55:11.512Z,29.50
2018-09-12T14:57:40.243Z,29.40
2018-09-12T15:03:14.775Z,30.80
2018-09-12T15:08:46.350Z,31.30
2018-09-12T15:14:12.498Z,31.50
2018-09-12T15:16:50.200Z,31.70
2018-09-12T15:19:17.693Z,31.30
2018-09-12T15:21:45.180Z,31.20
2018-09-12T15:24:12.771Z,31.30
2018-09-12T15:26:47.989Z,30.70
2018-09-12T15:29:15.842Z,31.20
2018-09-12T15:31:43.507Z,31.70
2018-09-12T15:34:11.144Z,32.50
2018-09-12T15:36:38.640Z,33.10
2018-09-12T15:39:29.000Z,33.90
2018-09-12T15:41:56.642Z,34.30
2018-09-12T15:44:47.500Z,34.60
2018-09-12T15:47:15.457Z,33.60
2018-09-12T15:49:42.855Z,33.20
2018-09-12T15:55:13.028Z,33.30
2018-09-12T15:57:41.150Z,32.30
2018-09-12T16:03:12.282Z,32.60
2018-09-12T16:09:00.532Z,33.00
2018-09-12T16:11:29.885Z,32.90
2018-09-12T16:13:57.385Z,32.70
2018-09-12T16:16:44.481Z,32.70
2018-09-12T16:22:26.537Z,33.50
2018-09-12T16:24:54.305Z,34.60
2018-09-12T16:27:22.196Z,33.80
2018-09-12T16:29:50.367Z,33.90
2018-09-12T16:32:20.596Z,34.20
2018-09-12T16:34:48.202Z,34.00
2018-09-12T16:37:15.661Z,34.90
2018-09-12T16:39:43.056Z,35.50
2018-09-12T16:42:10.471Z,35.50
2018-09-12T16:44:37.978Z,34.30
2018-09-12T16:50:16.326Z,36.80
2018-09-12T16:55:53.225Z,37.80
2018-09-12T16:58:20.816Z,37.80
2018-09-12T17:00:48.416Z,37.80
2018-09-12T17:03:15.840Z,38.10
2018-09-12T17:05:49.493Z,38.50
2018-09-12T17:08:18.623Z,39.00
2018-09-12T17:10:46.179Z,39.20
2018-09-12T17:13:13.707Z,38.40
2018-09-12T17:16:14.005Z,38.80
2018-09-12T17:18:41.641Z,39.00
2018-09-12T17:30:32.875Z,42.20
2018-09-12T17:33:01.811Z,42.60
2018-09-12T17:35:38.364Z,42.40
2018-09-12T17:41:09.320Z,42.50
